Time;durP1;ratioP1;P1;durP2;ratioP2;P2;SDS_P1;SDS_P2;PMS_P1;PMS_P2;Temp;Humidity;BMP_temperature;BMP_pressure;BME280_temperature;BME280_humidity;BME280_pressure;Samples;Min_cycle;Max_cycle;Signal;HPM_P1;HPM_P2
2022/11/16 00:02:50;;;;;;;6.03;3.47;;;11.20;99.90;;;;;;7351461;32;20504;-59
2022/11/16 00:06:52;;;;;;;6.78;3.70;;;11.30;99.90;;;;;;7346695;32;20103;-60
2022/11/16 00:10:54;;;;;;;7.60;4.20;;;11.30;99.90;;;;;;7343984;32;20291;-59
2022/11/16 00:14:55;;;;;;;4.93;3.87;;;11.20;99.90;;;;;;7354256;32;20119;-59
2022/11/16 00:19:00;;;;;;;8.75;3.97;;;11.20;99.90;;;;;;7349988;32;20534;-59
2022/11/16 00:23:02;;;;;;;7.72;4.60;;;11.20;99.90;;;;;;7343672;32;20107;-60
2022/11/16 00:27:04;;;;;;;5.25;4.35;;;11.10;99.90;;;;;;7360634;32;20241;-59
2022/11/16 00:31:06;;;;;;;5.95;4.10;;;11.20;99.90;;;;;;7359476;32;20111;-60
2022/11/16 00:35:08;;;;;;;5.72;4.18;;;11.20;99.90;;;;;;7360133;32;20171;-59
2022/11/16 00:39:11;;;;;;;7.57;4.45;;;11.20;99.90;;;;;;7356085;32;20107;-59
2022/11/16 00:43:13;;;;;;;7.07;4.05;;;11.20;99.90;;;;;;7350884;32;20617;-59
2022/11/16 00:47:15;;;;;;;8.50;4.80;;;11.20;99.90;;;;;;7347832;32;21130;-59
2022/11/16 00:51:16;;;;;;;5.93;4.62;;;11.20;99.90;;;;;;7349367;32;20157;-59
2022/11/16 00:55:18;;;;;;;7.35;4.85;;;11.20;99.90;;;;;;7346872;32;20371;-59
2022/11/16 00:59:20;;;;;;;6.40;4.70;;;11.20;99.90;;;;;;7347992;32;20111;-59
2022/11/16 01:03:21;;;;;;;5.80;4.70;;;11.10;99.90;;;;;;7346364;32;20103;-60
2022/11/16 01:07:23;;;;;;;7.43;4.97;;;11.10;99.90;;;;;;7342553;32;20536;-59
2022/11/16 01:15:48;;;;;;;8.23;4.82;;;11.10;99.90;;;;;;7350380;32;20213;-59
2022/11/16 01:19:50;;;;;;;8.48;4.82;;;11.20;99.90;;;;;;7343098;32;20238;-60
2022/11/16 01:23:52;;;;;;;6.20;4.80;;;11.10;99.90;;;;;;7347056;32;20214;-59
2022/11/16 01:27:54;;;;;;;6.93;4.65;;;11.20;99.90;;;;;;7349864;32;20153;-59
2022/11/16 01:31:56;;;;;;;8.73;4.28;;;11.10;99.90;;;;;;7350285;32;20134;-59
2022/11/16 01:35:58;;;;;;;5.93;4.90;;;11.20;99.90;;;;;;7351806;32;20217;-60
2022/11/16 01:40:00;;;;;;;6.75;4.50;;;11.20;99.90;;;;;;7355981;32;20104;-58
2022/11/16 01:44:05;;;;;;;9.38;5.43;;;11.20;99.90;;;;;;7350293;32;20602;-61
2022/11/16 01:48:08;;;;;;;8.52;4.68;;;11.20;99.90;;;;;;7347766;32;20149;-58
2022/11/16 01:52:14;;;;;;;7.25;4.70;;;11.20;99.90;;;;;;7352572;32;20112;-59
2022/11/16 01:56:16;;;;;;;8.40;4.87;;;11.20;99.90;;;;;;7342887;32;20115;-58
2022/11/16 02:00:18;;;;;;;5.60;4.97;;;11.20;99.90;;;;;;7349293;32;20454;-59
2022/11/16 02:04:20;;;;;;;6.90;4.47;;;11.10;99.90;;;;;;7357405;32;20111;-59
2022/11/16 02:13:25;;;;;;;;;;;11.20;99.90;;;;;;7352390;32;20118;-59
2022/11/16 02:17:59;;;;;;;6.95;5.22;;;11.20;99.90;;;;;;7348769;32;20010;-58
2022/11/16 02:22:31;;;;;;;5.65;5.07;;;11.20;99.90;;;;;;7327532;32;20120;-59
2022/11/16 02:26:58;;;;;;;6.97;4.93;;;11.10;99.90;;;;;;7346771;32;20209;-60
2022/11/16 02:31:04;;;;;;;7.90;5.07;;;11.10;99.90;;;;;;7351670;32;20201;-59
2022/11/16 02:35:15;;;;;;;6.60;5.28;;;11.10;99.90;;;;;;7351314;32;20206;-58
2022/11/16 02:39:22;;;;;;;5.93;4.68;;;11.10;99.90;;;;;;7349002;32;20355;-58
2022/11/16 02:43:30;;;;;;;5.90;5.22;;;11.20;99.90;;;;;;7344165;32;20115;-59
2022/11/16 02:47:34;;;;;;;8.25;5.72;;;11.10;99.90;;;;;;7346896;32;20116;-60
2022/11/16 02:51:37;;;;;;;7.00;5.47;;;11.10;99.90;;;;;;7349137;32;20228;-59
2022/11/16 02:55:39;;;;;;;8.77;5.95;;;11.10;99.90;;;;;;7350719;32;20730;-59
2022/11/16 02:59:45;;;;;;;7.40;6.43;;;11.00;99.90;;;;;;7349582;32;22243;-59
2022/11/16 03:03:58;;;;;;;6.93;5.60;;;11.00;99.90;;;;;;7356511;32;20149;-59
2022/11/16 03:08:13;;;;;;;9.98;6.68;;;11.00;99.90;;;;;;7351570;32;20107;-59
2022/11/16 03:12:22;;;;;;;7.35;6.05;;;11.00;99.90;;;;;;7350583;32;20512;-59
2022/11/16 03:16:39;;;;;;;9.13;5.35;;;11.00;99.90;;;;;;7354464;32;20154;-59
2022/11/16 03:20:43;;;;;;;9.63;6.32;;;11.00;99.90;;;;;;7352501;32;20111;-60
2022/11/16 03:24:45;;;;;;;7.40;5.75;;;10.90;99.90;;;;;;7358684;32;20805;-59
2022/11/16 03:28:54;;;;;;;7.70;5.53;;;10.90;99.90;;;;;;7349471;32;20115;-59
2022/11/16 03:33:19;;;;;;;6.85;5.90;;;10.90;99.90;;;;;;7356309;32;20198;-59
2022/11/16 03:37:22;;;;;;;7.20;4.75;;;10.90;99.90;;;;;;7347842;32;20133;-59
2022/11/16 03:41:25;;;;;;;7.22;4.90;;;10.90;99.90;;;;;;7351202;32;20217;-59
2022/11/16 03:45:29;;;;;;;4.07;3.62;;;11.00;99.90;;;;;;7360279;32;20133;-59
2022/11/16 03:49:30;;;;;;;5.30;3.90;;;11.00;99.90;;;;;;7357247;32;20157;-58
2022/11/16 03:53:32;;;;;;;5.15;4.15;;;11.00;99.90;;;;;;7352038;32;20135;-59
2022/11/16 03:57:34;;;;;;;4.97;3.80;;;11.00;99.90;;;;;;7356472;32;20218;-59
2022/11/16 04:01:36;;;;;;;5.95;3.80;;;11.00;99.90;;;;;;7358106;32;20636;-60
2022/11/16 04:40:35;;;;;;;7.47;6.50;;;10.90;99.90;;;;;;7355898;32;20111;-59
2022/11/16 04:48:57;;;;;;;6.55;5.90;;;11.00;99.90;;;;;;7353229;32;20146;-59
2022/11/16 04:52:59;;;;;;;9.25;6.07;;;11.00;99.90;;;;;;7352992;32;20111;-58
2022/11/16 04:57:01;;;;;;;11.00;5.60;;;11.00;99.90;;;;;;7357494;32;20111;-60
2022/11/16 05:01:03;;;;;;;6.60;5.87;;;11.00;99.90;;;;;;7351955;32;20488;-59
2022/11/16 05:05:05;;;;;;;7.80;6.05;;;11.10;99.90;;;;;;7356790;32;20259;-59
2022/11/16 05:09:07;;;;;;;9.57;6.65;;;10.90;99.90;;;;;;7352661;32;20202;-59
2022/11/16 05:13:08;;;;;;;9.43;6.65;;;10.90;99.90;;;;;;7350279;32;20138;-59
2022/11/16 05:17:11;;;;;;;9.10;6.57;;;10.90;99.90;;;;;;7350794;32;20135;-59
2022/11/16 05:21:13;;;;;;;13.15;7.22;;;10.90;99.90;;;;;;7344724;32;20098;-59
2022/11/16 05:25:14;;;;;;;8.60;6.62;;;10.90;99.90;;;;;;7347189;32;20218;-59
2022/11/16 05:29:16;;;;;;;10.57;6.65;;;11.00;99.90;;;;;;7350837;32;20182;-58
2022/11/16 05:33:17;;;;;;;10.43;6.18;;;11.00;99.90;;;;;;7350380;32;20911;-58
2022/11/16 05:37:20;;;;;;;7.57;5.50;;;11.00;99.90;;;;;;7350078;32;20544;-60
2022/11/16 05:41:22;;;;;;;6.22;4.50;;;11.00;99.90;;;;;;7346239;32;20134;-61
2022/11/16 05:45:24;;;;;;;6.57;4.07;;;11.00;99.90;;;;;;7353354;32;20261;-58
2022/11/16 05:49:26;;;;;;;7.45;4.12;;;11.00;99.90;;;;;;7339511;32;20111;-59
2022/11/16 05:53:27;;;;;;;7.25;3.90;;;10.90;99.90;;;;;;7352508;32;20619;-59
2022/11/16 05:57:29;;;;;;;6.10;3.45;;;11.00;99.90;;;;;;7349870;32;20182;-59
2022/11/16 06:01:31;;;;;;;5.90;3.97;;;10.90;99.90;;;;;;7343012;32;20112;-59
2022/11/16 06:05:34;;;;;;;6.07;4.20;;;10.90;99.90;;;;;;7349560;32;20267;-59
2022/11/16 06:09:42;;;;;;;6.53;3.80;;;10.80;99.90;;;;;;7353082;32;20190;-59
2022/11/16 06:13:44;;;;;;;6.15;4.12;;;10.80;99.90;;;;;;7351879;32;20165;-58
2022/11/16 06:17:45;;;;;;;5.30;3.37;;;10.80;99.90;;;;;;7350090;32;20112;-60
2022/11/16 06:21:47;;;;;;;3.62;2.85;;;10.70;99.90;;;;;;7347211;32;20145;-58
2022/11/16 06:25:54;;;;;;;6.40;3.20;;;10.80;99.90;;;;;;7347392;32;20143;-59
2022/11/16 06:29:55;;;;;;;6.03;3.35;;;10.70;99.90;;;;;;7348907;32;20110;-61
2022/11/16 06:33:57;;;;;;;4.37;2.97;;;10.70;99.90;;;;;;7344040;32;20197;-59
2022/11/16 06:37:59;;;;;;;4.85;3.50;;;10.60;99.90;;;;;;7355238;32;20112;-59
2022/11/16 06:42:00;;;;;;;7.80;3.50;;;10.50;99.90;;;;;;7355062;32;20149;-60
2022/11/16 06:46:02;;;;;;;7.25;3.28;;;10.50;99.90;;;;;;7352469;32;20141;-61
2022/11/16 06:50:04;;;;;;;6.55;3.72;;;10.40;99.90;;;;;;7349933;32;20153;-61
2022/11/16 06:54:06;;;;;;;8.43;3.87;;;10.50;99.90;;;;;;7345579;32;20186;-62
2022/11/16 06:58:07;;;;;;;6.87;3.15;;;10.30;99.90;;;;;;7352945;32;20626;-61
2022/11/16 07:02:10;;;;;;;5.18;3.30;;;10.40;99.90;;;;;;7350467;32;20103;-61
2022/11/16 07:06:13;;;;;;;7.82;3.60;;;10.40;99.90;;;;;;7354312;32;20133;-63
2022/11/16 07:10:14;;;;;;;7.18;3.15;;;10.40;99.90;;;;;;7346800;32;20133;-60
2022/11/16 07:14:17;;;;;;;4.40;2.00;;;10.30;99.90;;;;;;7344615;32;20133;-61
2022/11/16 07:18:18;;;;;;;5.82;2.50;;;10.20;99.90;;;;;;7353824;32;20134;-61
2022/11/16 07:22:20;;;;;;;7.18;2.58;;;10.10;99.90;;;;;;7345977;32;20178;-62
2022/11/16 07:26:22;;;;;;;6.68;2.28;;;10.00;99.90;;;;;;7355917;32;20540;-63
2022/11/16 07:30:24;;;;;;;9.73;3.12;;;9.90;99.90;;;;;;7348588;32;20137;-62
2022/11/16 07:34:25;;;;;;;4.65;2.05;;;9.80;99.90;;;;;;7349637;32;20140;-63
2022/11/16 07:38:28;;;;;;;7.68;2.20;;;9.60;99.90;;;;;;7352119;32;20223;-61
2022/11/16 07:42:29;;;;;;;8.18;3.08;;;9.50;99.90;;;;;;7351536;32;20115;-60
2022/11/16 07:46:31;;;;;;;7.90;2.95;;;9.50;99.90;;;;;;7358703;32;20713;-61
2022/11/16 07:50:49;;;;;;;5.57;2.37;;;9.40;99.90;;;;;;7357416;32;20720;-61
2022/11/16 07:54:51;;;;;;;8.77;2.55;;;9.30;99.90;;;;;;7356446;32;20110;-61
2022/11/16 07:58:52;;;;;;;7.50;2.83;;;9.30;99.90;;;;;;7357876;32;20190;-61
2022/11/16 08:02:55;;;;;;;9.02;2.50;;;9.20;99.90;;;;;;7356699;32;20130;-61
2022/11/16 08:06:57;;;;;;;7.60;2.70;;;9.20;99.90;;;;;;7348925;32;20119;-62
2022/11/16 08:11:04;;;;;;;7.15;3.08;;;9.10;99.90;;;;;;7349648;32;20569;-61
2022/11/16 08:15:06;;;;;;;9.77;3.30;;;9.10;99.90;;;;;;7348782;32;20498;-62
2022/11/16 08:19:09;;;;;;;5.32;2.90;;;9.10;99.90;;;;;;7355026;32;20210;-61
2022/11/16 08:23:11;;;;;;;9.95;3.67;;;9.00;99.90;;;;;;7354064;32;20107;-61
2022/11/16 08:27:15;;;;;;;9.82;3.75;;;9.00;99.90;;;;;;7356696;32;20107;-62
2022/11/16 08:31:20;;;;;;;11.05;4.00;;;9.00;99.90;;;;;;7353071;32;20111;-62
2022/11/16 08:35:22;;;;;;;14.45;4.18;;;9.10;99.90;;;;;;7358682;32;20212;-61
2022/11/16 08:39:23;;;;;;;13.88;4.00;;;9.20;99.90;;;;;;7348533;32;20127;-62
2022/11/16 08:43:26;;;;;;;12.48;3.28;;;9.30;99.90;;;;;;7348833;32;20125;-61
2022/11/16 08:47:27;;;;;;;9.30;3.22;;;9.30;99.90;;;;;;7349075;32;20183;-61
2022/11/16 08:51:29;;;;;;;11.85;2.75;;;9.40;99.90;;;;;;7352599;32;20141;-60
2022/11/16 08:55:32;;;;;;;6.97;2.03;;;9.50;99.90;;;;;;7355664;32;20207;-61
2022/11/16 08:59:33;;;;;;;9.88;1.83;;;9.50;99.90;;;;;;7347775;32;20262;-60
2022/11/16 09:03:37;;;;;;;5.80;2.10;;;9.60;99.90;;;;;;7357990;32;20236;-61
2022/11/16 09:07:39;;;;;;;10.43;2.58;;;9.50;99.90;;;;;;7349787;32;20111;-61
2022/11/16 09:11:41;;;;;;;10.07;2.87;;;9.50;99.90;;;;;;7351990;32;20112;-60
2022/11/16 09:15:43;;;;;;;6.35;1.73;;;9.40;99.90;;;;;;7354200;32;20122;-62
2022/11/16 09:19:45;;;;;;;11.50;1.73;;;9.40;99.90;;;;;;7349135;32;20107;-61
2022/11/16 09:23:47;;;;;;;8.80;1.35;;;9.40;99.90;;;;;;7350521;32;20142;-61
2022/11/16 09:27:49;;;;;;;6.78;1.35;;;9.50;99.90;;;;;;7350693;32;20107;-66
2022/11/16 09:31:51;;;;;;;8.65;1.70;;;9.80;99.90;;;;;;7358127;32;20168;-61
2022/11/16 09:35:52;;;;;;;5.78;1.17;;;10.00;99.90;;;;;;7354996;32;20107;-64
2022/11/16 09:39:56;;;;;;;7.72;1.73;;;10.20;99.90;;;;;;7363440;32;20131;-62
2022/11/16 09:44:15;;;;;;;11.63;1.30;;;10.40;99.90;;;;;;7360222;32;20253;-63
2022/11/16 09:48:18;;;;;;;7.60;1.10;;;10.70;99.90;;;;;;7359440;32;20102;-62
2022/11/16 09:52:41;;;;;;;8.85;1.52;;;11.00;99.90;;;;;;7360219;32;20212;-63
2022/11/16 09:56:44;;;;;;;6.35;1.62;;;11.20;99.90;;;;;;7359851;32;20126;-63
2022/11/16 10:00:53;;;;;;;4.72;1.27;;;11.10;99.90;;;;;;7353743;32;20134;-65
2022/11/16 10:05:23;;;;;;;8.20;1.40;;;11.00;99.90;;;;;;7353363;32;20182;-64
2022/11/16 10:09:25;;;;;;;8.73;1.70;;;10.80;99.90;;;;;;7357675;32;20222;-61
2022/11/16 10:13:29;;;;;;;6.68;1.27;;;10.80;99.90;;;;;;7353399;32;20116;-60
2022/11/16 10:17:45;;;;;;;10.85;1.25;;;10.90;99.90;;;;;;7352790;32;20233;-61
2022/11/16 10:21:57;;;;;;;5.70;1.12;;;11.10;99.90;;;;;;7354802;32;20106;-62
2022/11/16 10:26:30;;;;;;;7.20;1.00;;;11.10;99.90;;;;;;7363660;32;20232;-63
2022/11/16 10:30:42;;;;;;;7.22;1.52;;;11.30;99.90;;;;;;7357205;32;20146;-63
2022/11/16 10:35:10;;;;;;;5.70;1.35;;;11.30;99.90;;;;;;7361180;32;20202;-61
2022/11/16 10:39:16;;;;;;;6.75;1.20;;;11.20;99.90;;;;;;7358348;32;20111;-61
2022/11/16 10:43:22;;;;;;;3.55;0.85;;;11.20;99.90;;;;;;7355500;32;20119;-61
2022/11/16 10:47:23;;;;;;;12.30;1.70;;;11.20;99.90;;;;;;7352737;32;20115;-60
2022/11/16 10:51:31;;;;;;;6.97;1.60;;;11.20;99.90;;;;;;7358324;32;20111;-61
2022/11/16 10:55:33;;;;;;;3.83;0.85;;;11.30;99.90;;;;;;7352669;32;20285;-61
2022/11/16 10:59:52;;;;;;;6.97;1.30;;;11.20;99.90;;;;;;7357125;32;20567;-61
2022/11/16 11:03:53;;;;;;;8.15;1.30;;;11.40;99.90;;;;;;7346290;32;20206;-60
2022/11/16 11:08:10;;;;;;;6.55;1.10;;;11.30;99.90;;;;;;7354661;32;20108;-62
2022/11/16 11:12:37;;;;;;;4.10;1.25;;;11.40;99.90;;;;;;7353676;32;20125;-62
2022/11/16 11:16:40;;;;;;;8.95;1.20;;;11.50;99.90;;;;;;7354343;32;20528;-61
2022/11/16 11:20:51;;;;;;;5.00;1.12;;;11.50;99.90;;;;;;7352518;32;20218;-61
2022/11/16 11:24:53;;;;;;;7.55;1.37;;;11.50;99.90;;;;;;7363252;32;20110;-63
2022/11/16 11:28:56;;;;;;;4.60;1.00;;;11.60;99.90;;;;;;7353249;32;20172;-61
2022/11/16 11:32:58;;;;;;;7.60;1.12;;;11.70;99.90;;;;;;7354459;32;20201;-61
2022/11/16 11:37:02;;;;;;;6.55;1.02;;;11.70;99.90;;;;;;7359021;32;20212;-61
2022/11/16 11:41:04;;;;;;;6.85;1.08;;;11.80;99.90;;;;;;7359255;32;20145;-61
2022/11/16 11:45:07;;;;;;;6.25;1.05;;;11.80;99.90;;;;;;7360873;32;20156;-60
2022/11/16 11:49:11;;;;;;;6.18;1.10;;;11.90;99.90;;;;;;7360514;32;20524;-61
2022/11/16 11:53:32;;;;;;;6.45;0.90;;;11.90;99.90;;;;;;7353173;32;20221;-60
2022/11/16 11:57:40;;;;;;;6.72;1.25;;;12.00;99.90;;;;;;7356601;32;20202;-59
2022/11/16 12:01:48;;;;;;;5.68;1.23;;;11.90;99.90;;;;;;7361603;32;20175;-60
2022/11/16 12:06:10;;;;;;;9.80;1.90;;;12.00;99.90;;;;;;7361828;32;20126;-60
2022/11/16 12:10:45;;;;;;;7.22;0.90;;;12.00;99.90;;;;;;7354100;32;20133;-62
2022/11/16 12:15:41;;;;;;;6.03;1.05;;;12.00;99.90;;;;;;7354561;32;20531;-62
2022/11/16 12:20:13;;;;;;;8.15;1.33;;;11.90;99.90;;;;;;7303968;32;20133;-61
2022/11/16 12:24:39;;;;;;;12.90;1.50;;;12.00;99.90;;;;;;7362597;32;20175;-60
2022/11/16 12:29:01;;;;;;;6.12;1.00;;;12.20;99.90;;;;;;7353112;32;20687;-61
2022/11/16 12:33:30;;;;;;;5.50;1.12;;;12.10;99.90;;;;;;7343758;32;20157;-61
2022/11/16 12:37:56;;;;;;;6.60;1.42;;;12.20;99.90;;;;;;7357014;32;20138;-61
2022/11/16 12:42:40;;;;;;;7.87;0.98;;;12.20;99.90;;;;;;7347909;32;20578;-60
2022/11/16 12:47:12;;;;;;;6.32;0.90;;;12.30;99.90;;;;;;7305567;32;20107;-59
2022/11/16 12:51:25;;;;;;;4.05;0.90;;;12.30;99.90;;;;;;7354332;32;20149;-60
2022/11/16 12:55:38;;;;;;;5.22;0.90;;;12.30;99.90;;;;;;7349841;32;20144;-59
2022/11/16 13:00:02;;;;;;;6.30;1.00;;;12.40;99.90;;;;;;7353794;32;21130;-61
2022/11/16 13:04:14;;;;;;;5.60;1.08;;;12.40;99.90;;;;;;7343504;32;20145;-60
2022/11/16 13:08:18;;;;;;;4.93;0.93;;;12.30;99.90;;;;;;7348383;32;20107;-60
2022/11/16 13:12:22;;;;;;;8.00;1.15;;;12.20;99.90;;;;;;7345760;32;20237;-60
2022/11/16 13:16:24;;;;;;;5.82;1.15;;;12.10;99.90;;;;;;7347721;32;20104;-61
2022/11/16 13:20:37;;;;;;;6.10;0.80;;;12.00;99.90;;;;;;7351497;32;20107;-60
2022/11/16 13:24:54;;;;;;;6.53;0.88;;;11.90;99.90;;;;;;7348622;32;20210;-60
2022/11/16 13:29:29;;;;;;;8.48;1.15;;;12.10;99.90;;;;;;7350884;32;20571;-60
2022/11/16 13:33:46;;;;;;;6.93;1.15;;;12.00;99.90;;;;;;7343430;32;20150;-61
2022/11/16 13:37:52;;;;;;;6.93;1.35;;;11.90;99.90;;;;;;7337888;32;20116;-60
2022/11/16 13:42:12;;;;;;;6.50;0.88;;;11.90;99.90;;;;;;7351164;32;20516;-59
2022/11/16 13:46:14;;;;;;;5.60;0.80;;;11.90;99.90;;;;;;7349358;32;20774;-60
2022/11/16 13:50:45;;;;;;;4.68;0.90;;;12.00;99.90;;;;;;7345317;32;21407;-59
2022/11/16 13:54:51;;;;;;;5.05;1.10;;;12.30;99.90;;;;;;7340215;32;20149;-60
2022/11/16 13:58:54;;;;;;;3.43;1.10;;;12.90;99.90;;;;;;7339822;32;20178;-60
2022/11/16 14:03:14;;;;;;;3.45;0.70;;;13.60;99.90;;;;;;7343116;32;20213;-59
2022/11/16 14:07:41;;;;;;;2.90;0.75;;;13.80;99.90;;;;;;7343569;32;20208;-59
2022/11/16 14:11:43;;;;;;;3.25;0.68;;;13.60;99.90;;;;;;7351301;32;20132;-60
2022/11/16 14:16:05;;;;;;;2.97;0.57;;;13.30;99.90;;;;;;7352139;32;20099;-60
2022/11/16 14:20:11;;;;;;;5.00;0.88;;;12.90;99.90;;;;;;7342731;32;20219;-60
2022/11/16 14:24:31;;;;;;;4.03;0.70;;;12.70;99.90;;;;;;7351146;32;20194;-61
2022/11/16 14:28:51;;;;;;;4.00;0.55;;;12.60;99.90;;;;;;7345746;32;20252;-60
2022/11/16 14:32:54;;;;;;;6.78;0.70;;;12.40;99.90;;;;;;7344557;32;20739;-62
2022/11/16 14:36:58;;;;;;;3.17;0.95;;;12.30;99.90;;;;;;7336688;32;20108;-62
2022/11/16 14:41:03;;;;;;;4.12;0.90;;;12.30;99.90;;;;;;7341225;32;22003;-62
2022/11/16 14:45:16;;;;;;;3.87;0.77;;;12.20;99.90;;;;;;7346054;32;20125;-61
2022/11/16 14:49:20;;;;;;;7.10;0.85;;;12.20;99.90;;;;;;7349791;32;20179;-62
2022/11/16 14:53:22;;;;;;;5.35;0.85;;;12.00;99.90;;;;;;7339536;32;20142;-61
2022/11/16 14:57:24;;;;;;;4.93;1.00;;;11.90;99.90;;;;;;7349344;32;20214;-62
2022/11/16 15:01:32;;;;;;;3.12;0.60;;;11.90;99.90;;;;;;7346987;32;20112;-60
2022/11/16 15:05:35;;;;;;;9.57;0.85;;;11.70;99.90;;;;;;7350247;32;20206;-61
2022/11/16 15:09:45;;;;;;;6.35;0.95;;;11.50;99.90;;;;;;7353720;32;20182;-62
2022/11/16 15:13:47;;;;;;;5.78;0.95;;;11.40;99.90;;;;;;7355683;32;20107;-61
2022/11/16 15:17:59;;;;;;;4.22;1.60;;;11.30;99.90;;;;;;7351898;32;20674;-61
2022/11/16 15:22:03;;;;;;;3.12;0.77;;;11.20;99.90;;;;;;7348337;32;20475;-61
2022/11/16 15:26:04;;;;;;;4.80;1.02;;;11.00;99.90;;;;;;7348793;32;20137;-61
2022/11/16 15:30:16;;;;;;;3.70;0.95;;;10.90;99.90;;;;;;7345855;32;20473;-61
2022/11/16 15:34:19;;;;;;;4.53;0.80;;;10.80;99.90;;;;;;7344620;32;20570;-61
2022/11/16 15:38:23;;;;;;;3.33;0.80;;;10.70;99.90;;;;;;7345646;32;20131;-61
2022/11/16 15:42:26;;;;;;;3.53;0.88;;;10.50;99.90;;;;;;7341856;32;20133;-61
2022/11/16 15:46:31;;;;;;;3.55;0.70;;;10.40;99.90;;;;;;7345790;32;20756;-60
2022/11/16 15:50:33;;;;;;;2.97;0.88;;;10.30;99.90;;;;;;7346152;32;20181;-61
2022/11/16 15:59:00;;;;;;;4.87;2.47;;;10.00;99.90;;;;;;7347536;32;20161;-60
2022/11/16 16:03:06;;;;;;;4.22;1.95;;;9.90;99.90;;;;;;7351808;32;20103;-59
2022/11/16 16:07:09;;;;;;;6.13;1.50;;;9.80;99.90;;;;;;7356964;32;20133;-59
2022/11/16 16:11:14;;;;;;;5.75;1.67;;;9.60;99.90;;;;;;7352079;32;20149;-59
2022/11/16 16:15:26;;;;;;;5.03;1.50;;;9.40;99.90;;;;;;7352018;32;20111;-59
2022/11/16 16:19:35;;;;;;;4.97;1.80;;;9.30;99.90;;;;;;7353667;32;20206;-57
2022/11/16 16:23:49;;;;;;;7.18;1.83;;;9.10;99.90;;;;;;7355579;32;20181;-58
2022/11/16 16:27:51;;;;;;;6.20;1.83;;;9.00;99.90;;;;;;7354366;32;20137;-58
2022/11/16 16:31:56;;;;;;;5.87;1.48;;;8.90;99.90;;;;;;7352426;32;20130;-58
2022/11/16 16:35:58;;;;;;;7.70;1.62;;;8.90;99.90;;;;;;7352928;32;20108;-58
2022/11/16 16:39:59;;;;;;;3.20;1.40;;;8.80;99.90;;;;;;7351946;32;20216;-59
2022/11/16 16:44:04;;;;;;;2.95;1.02;;;8.70;99.90;;;;;;7352092;32;20115;-58
2022/11/16 16:48:08;;;;;;;7.03;3.30;;;8.70;99.90;;;;;;7352565;32;20621;-58
2022/11/16 16:52:11;;;;;;;8.88;2.30;;;8.70;99.90;;;;;;7351910;32;20235;-58
2022/11/16 16:56:18;;;;;;;4.80;1.95;;;8.70;99.90;;;;;;7355579;32;20111;-58
2022/11/16 17:00:20;;;;;;;6.65;1.62;;;8.70;99.90;;;;;;7353597;32;21277;-58
2022/11/16 17:04:21;;;;;;;5.68;1.60;;;8.70;99.90;;;;;;7353876;32;20432;-58
2022/11/16 17:08:23;;;;;;;9.05;2.20;;;8.70;99.90;;;;;;7353450;32;20135;-58
2022/11/16 17:12:25;;;;;;;8.38;2.30;;;8.80;99.90;;;;;;7350237;32;20190;-58
2022/11/16 17:16:26;;;;;;;7.20;2.03;;;8.80;99.90;;;;;;7343584;32;20720;-59
2022/11/16 17:20:28;;;;;;;5.35;1.75;;;8.90;99.90;;;;;;7345744;32;20107;-58
2022/11/16 17:24:30;;;;;;;8.18;1.70;;;8.90;99.90;;;;;;7341830;32;20230;-59
2022/11/16 17:28:33;;;;;;;5.80;1.65;;;8.90;99.90;;;;;;7350154;32;20118;-59
2022/11/16 17:32:34;;;;;;;3.45;1.58;;;8.90;99.90;;;;;;7350203;32;20115;-59
2022/11/16 17:36:36;;;;;;;6.68;2.10;;;9.00;99.90;;;;;;7348601;32;20111;-58
2022/11/16 17:40:38;;;;;;;12.90;2.05;;;9.10;99.90;;;;;;7350750;32;20134;-59
2022/11/16 17:44:40;;;;;;;5.62;1.30;;;9.10;99.90;;;;;;7349196;32;20198;-59
2022/11/16 17:48:43;;;;;;;7.47;1.40;;;9.10;99.90;;;;;;7346500;32;20137;-58
2022/11/16 17:52:45;;;;;;;5.25;1.50;;;9.10;99.90;;;;;;7350073;32;20292;-59
2022/11/16 17:56:47;;;;;;;3.15;1.48;;;9.10;99.90;;;;;;7349617;32;20119;-59
2022/11/16 18:00:49;;;;;;;9.00;1.70;;;9.10;99.90;;;;;;7352737;32;20191;-59
2022/11/16 18:04:51;;;;;;;7.43;1.98;;;9.10;99.90;;;;;;7350596;32;20142;-59
2022/11/16 18:08:53;;;;;;;5.55;1.42;;;9.20;99.90;;;;;;7349269;32;20185;-60
2022/11/16 18:12:55;;;;;;;7.93;1.58;;;9.20;99.90;;;;;;7352116;32;20115;-61
2022/11/16 18:16:57;;;;;;;3.85;1.30;;;9.20;99.90;;;;;;7352557;32;20112;-58
2022/11/16 18:21:02;;;;;;;4.22;1.12;;;9.20;99.90;;;;;;7351522;32;20137;-61
2022/11/16 18:25:04;;;;;;;5.65;1.27;;;9.30;99.90;;;;;;7342124;32;20137;-61
2022/11/16 18:29:08;;;;;;;7.35;2.70;;;9.20;99.90;;;;;;7344697;32;20245;-60
2022/11/16 18:33:10;;;;;;;5.72;1.52;;;9.30;99.90;;;;;;7346454;32;20119;-59
2022/11/16 18:37:11;;;;;;;6.28;1.90;;;9.30;99.90;;;;;;7349928;32;20106;-59
2022/11/16 18:41:18;;;;;;;6.97;1.65;;;9.30;99.90;;;;;;7337577;32;20111;-60
2022/11/16 18:45:20;;;;;;;3.42;1.10;;;9.20;99.90;;;;;;7343907;32;20194;-59
2022/11/16 18:49:22;;;;;;;4.80;1.55;;;9.10;99.90;;;;;;7340397;32;20194;-59
2022/11/16 18:53:24;;;;;;;5.78;1.20;;;9.20;99.90;;;;;;7347793;32;20132;-60
2022/11/16 18:57:25;;;;;;;5.30;1.65;;;9.20;99.90;;;;;;7345262;32;20098;-61
2022/11/16 19:01:28;;;;;;;7.18;1.70;;;9.10;99.90;;;;;;7341788;32;20111;-59
2022/11/16 19:05:29;;;;;;;5.15;1.50;;;9.20;99.90;;;;;;7340250;32;20640;-59
2022/11/16 19:09:31;;;;;;;5.25;1.40;;;9.10;99.90;;;;;;7340257;32;20438;-60
2022/11/16 19:13:33;;;;;;;6.43;1.75;;;9.20;99.90;;;;;;7347571;32;20273;-61
2022/11/16 19:17:35;;;;;;;6.25;1.80;;;9.20;99.90;;;;;;7336373;32;20102;-59
2022/11/16 19:21:57;;;;;;;5.72;1.75;;;9.20;99.90;;;;;;7339430;32;20115;-59
2022/11/16 19:26:00;;;;;;;7.82;1.60;;;9.30;99.90;;;;;;7340756;32;20131;-62
2022/11/16 19:30:03;;;;;;;5.32;1.45;;;9.30;99.90;;;;;;7340788;32;20566;-61
2022/11/16 19:34:06;;;;;;;4.22;1.20;;;9.30;99.90;;;;;;7342684;32;20775;-60
2022/11/16 19:38:08;;;;;;;6.47;1.40;;;9.40;99.90;;;;;;7344287;32;20252;-60
2022/11/16 19:42:10;;;;;;;7.72;1.58;;;9.40;99.90;;;;;;7346812;32;20125;-62
2022/11/16 19:46:15;;;;;;;4.40;1.25;;;9.50;99.90;;;;;;7344232;32;20131;-59
2022/11/16 19:50:17;;;;;;;5.50;1.60;;;9.50;99.90;;;;;;7360373;32;20294;-59
2022/11/16 19:54:19;;;;;;;9.43;2.22;;;9.70;99.90;;;;;;7362336;32;20165;-60
2022/11/16 19:58:20;;;;;;;8.45;1.62;;;9.70;99.90;;;;;;7357425;32;20773;-60
2022/11/16 20:02:22;;;;;;;6.68;1.90;;;9.80;99.90;;;;;;7348364;32;20111;-60
2022/11/16 20:06:32;;;;;;;4.15;1.65;;;9.70;99.90;;;;;;7356701;32;20111;-61
2022/11/16 20:10:33;;;;;;;8.52;1.83;;;9.80;99.90;;;;;;7357592;32;20569;-62
2022/11/16 20:14:35;;;;;;;5.95;1.55;;;9.90;99.90;;;;;;7352672;32;20126;-60
2022/11/16 20:18:38;;;;;;;5.68;1.70;;;9.90;99.90;;;;;;7353750;32;20133;-60
2022/11/16 20:22:39;;;;;;;7.97;1.73;;;9.90;99.90;;;;;;7352952;32;20114;-60
2022/11/16 20:26:45;;;;;;;6.28;1.65;;;9.90;99.90;;;;;;7352411;32;20127;-61
2022/11/16 20:30:47;;;;;;;6.57;1.77;;;9.90;99.90;;;;;;7350949;32;20108;-59
2022/11/16 20:34:48;;;;;;;5.60;1.50;;;10.00;99.90;;;;;;7351201;32;20703;-60
2022/11/16 20:38:50;;;;;;;10.88;1.80;;;10.00;99.90;;;;;;7348473;32;20703;-61
2022/11/16 20:42:57;;;;;;;8.18;2.00;;;10.00;99.90;;;;;;7357153;32;20120;-60
2022/11/16 20:46:59;;;;;;;6.55;1.50;;;10.00;99.90;;;;;;7352360;32;20135;-60
2022/11/16 20:51:01;;;;;;;4.90;2.10;;;10.00;99.90;;;;;;7348020;32;20241;-63
2022/11/16 20:55:03;;;;;;;6.47;1.75;;;10.00;99.90;;;;;;7349107;32;20146;-59
2022/11/16 20:59:05;;;;;;;4.70;1.83;;;10.10;99.90;;;;;;7339520;32;20534;-60
2022/11/16 21:03:06;;;;;;;7.03;2.00;;;10.10;99.90;;;;;;7344567;32;20195;-61
2022/11/16 21:07:09;;;;;;;7.60;1.52;;;10.10;99.90;;;;;;7346485;32;20175;-60
2022/11/16 21:11:13;;;;;;;5.70;2.12;;;10.20;99.90;;;;;;7347698;32;20233;-60
2022/11/16 21:15:15;;;;;;;7.05;1.70;;;10.20;99.90;;;;;;7345511;32;20134;-59
2022/11/16 21:19:16;;;;;;;5.60;1.60;;;10.20;99.90;;;;;;7343888;32;20126;-59
2022/11/16 21:23:18;;;;;;;6.10;1.80;;;10.20;99.90;;;;;;7345483;32;20119;-60
2022/11/16 21:27:20;;;;;;;5.60;1.58;;;10.20;99.90;;;;;;7344012;32;20194;-59
2022/11/16 21:31:25;;;;;;;4.78;1.55;;;10.20;99.90;;;;;;7344431;32;20111;-60
2022/11/16 21:35:26;;;;;;;4.72;1.55;;;10.20;99.90;;;;;;7343338;32;20107;-60
2022/11/16 21:39:28;;;;;;;3.37;1.40;;;10.20;99.90;;;;;;7354433;32;20115;-59
2022/11/16 21:43:32;;;;;;;7.10;1.90;;;10.30;99.90;;;;;;7345404;32;20213;-59
2022/11/16 21:47:34;;;;;;;4.60;1.67;;;10.20;99.90;;;;;;7338210;32;20111;-59
2022/11/16 21:51:36;;;;;;;3.20;1.45;;;10.20;99.90;;;;;;7333619;32;20138;-59
2022/11/16 21:55:38;;;;;;;5.45;1.50;;;10.20;99.90;;;;;;7354526;32;20565;-60
2022/11/16 21:59:39;;;;;;;5.47;1.60;;;10.20;99.90;;;;;;7347809;32;20790;-60
2022/11/16 22:03:42;;;;;;;6.12;1.65;;;10.20;99.90;;;;;;7343499;32;20573;-59
2022/11/16 22:07:43;;;;;;;6.75;1.45;;;10.30;99.90;;;;;;7348722;32;20096;-59
2022/11/16 22:11:45;;;;;;;8.55;1.83;;;10.20;99.90;;;;;;7358561;32;20196;-59
2022/11/16 22:15:47;;;;;;;5.70;1.40;;;10.30;99.90;;;;;;7348650;32;20145;-59
2022/11/16 22:19:48;;;;;;;5.62;1.30;;;10.20;99.90;;;;;;7354318;32;20468;-58